Terminal Aerodrome Forecast
Issued by NWS Caribou, ME

Home | Current Version | Previous Version | Text Only | Print | Product List | Glossary On
Versions: 1 2 3 4 5 6 7 8 9 10 11 12 13 14 15 16 17 18 19 20 21
000
FTUS41 KCAR 010523
TAFCAR
TAF
KCAR 010523Z 0106/0206 17005KT P6SM BKN250
     FM011400 16007KT P6SM BKN025
     FM011500 16007KT P6SM BKN020
     FM011600 16008KT 6SM -SHRA BKN015
     FM011800 16008KT 6SM -SHRA OVC010
     FM012300 17009KT 6SM -SHRA OVC030
     FM020300 16008KT P6SM OVC008=

USA.gov is the U.S. government's official web portal to all federal, state and local government web resources and services.